Time;durP1;ratioP1;P1;durP2;ratioP2;P2;SDS_P1;SDS_P2;PMS_P1;PMS_P2;Temp;Humidity;BMP_temperature;BMP_pressure;BME280_temperature;BME280_humidity;BME280_pressure;Samples;Min_cycle;Max_cycle;Signal;HPM_P1;HPM_P2
2023/01/26 00:02:08;;;;;;;;;;;;;;;0.13;94.93;99279.97;435226;1255;99182;-40
2023/01/26 00:12:13;;;;;;;;;;;;;;;0.12;94.86;99273.03;435276;1253;111498;-40
2023/01/26 00:22:19;;;;;;;;;;;;;;;0.16;94.71;99274.16;435237;1256;108396;-40
2023/01/26 00:32:24;;;;;;;;;;;;;;;0.11;94.93;99270.78;435346;1256;98802;-38
2023/01/26 00:42:30;;;;;;;;;;;;;;;0.11;94.90;99274.81;435482;1256;110844;-40
2023/01/26 00:52:34;;;;;;;;;;;;;;;-0.06;94.47;99270.52;435333;1256;98827;-40
2023/01/26 01:02:40;;;;;;;;;;;;;;;-0.15;94.30;99279.22;435183;1256;99466;-40
2023/01/26 01:12:46;;;;;;;;;;;;;;;-0.15;94.12;99276.45;435319;1256;111990;-40
2023/01/26 01:22:50;;;;;;;;;;;;;;;-0.08;94.24;99272.79;435200;1254;107663;-41
2023/01/26 01:32:56;;;;;;;;;;;;;;;0.03;94.71;99253.92;435416;1253;98719;-40
2023/01/26 01:43:02;;;;;;;;;;;;;;;-0.03;94.43;99243.04;435302;1253;111857;-40
2023/01/26 01:53:10;;;;;;;;;;;;;;;-0.17;94.17;99245.98;435318;1253;107907;-39
2023/01/26 02:13:24;;;;;;;;;;;;;;;-0.28;94.31;99215.83;435358;1254;112516;-40
2023/01/26 02:23:31;;;;;;;;;;;;;;;-0.39;93.92;99200.54;435209;1256;108616;-39
2023/01/26 02:33:37;;;;;;;;;;;;;;;-0.30;94.04;99191.17;435211;1256;98042;-40
2023/01/26 02:43:42;;;;;;;;;;;;;;;-0.19;93.82;99178.77;435283;1256;111528;-39
2023/01/26 02:53:48;;;;;;;;;;;;;;;-0.17;93.83;99177.37;429919;1255;8009823;-41
2023/01/26 03:03:53;;;;;;;;;;;;;;;-0.12;93.93;99163.80;435371;1256;111030;-39
2023/01/26 03:13:59;;;;;;;;;;;;;;;-0.11;94.11;99154.91;435218;1256;107608;-41
2023/01/26 03:34:28;;;;;;;;;;;;;;;-0.25;93.68;99120.91;435319;1254;111119;-40
2023/01/26 04:26:07;;;;;;;;;;;;;;;-0.15;93.55;99102.92;435182;1256;99228;-40
2023/01/26 04:36:12;;;;;;;;;;;;;;;-0.17;93.52;99095.92;435245;1256;107279;-39
2023/01/26 04:46:18;;;;;;;;;;;;;;;-0.21;93.49;99089.39;435213;1251;98248;-39
2023/01/26 04:56:24;;;;;;;;;;;;;;;-0.38;93.15;99079.60;435214;1256;112880;-40
2023/01/26 05:06:30;;;;;;;;;;;;;;;-0.44;93.45;99081.06;435295;1257;107483;-39
2023/01/26 05:16:36;;;;;;;;;;;;;;;-0.54;93.06;99071.31;435258;1256;97990;-40
2023/01/26 05:26:42;;;;;;;;;;;;;;;-0.62;93.13;99070.83;435327;1256;112043;-40
2023/01/26 05:36:47;;;;;;;;;;;;;;;-0.67;93.03;99068.02;435253;1255;108276;-39
2023/01/26 05:46:53;;;;;;;;;;;;;;;-0.67;93.00;99055.73;435245;1256;99243;-38
2023/01/26 05:56:58;;;;;;;;;;;;;;;-0.57;93.03;99053.38;435227;1256;112001;-40
2023/01/26 06:07:04;;;;;;;;;;;;;;;-0.49;92.93;99052.98;435214;1256;109352;-38
2023/01/26 06:17:10;;;;;;;;;;;;;;;-0.55;92.85;99055.59;435344;1264;97992;-39
2023/01/26 06:27:16;;;;;;;;;;;;;;;-0.59;92.79;99055.12;435335;1255;110979;-40
2023/01/26 06:37:21;;;;;;;;;;;;;;;-0.71;92.77;99050.73;435276;1256;107637;-40
2023/01/26 06:47:27;;;;;;;;;;;;;;;-0.67;93.09;99048.42;435246;1256;99262;-40
2023/01/26 06:57:32;;;;;;;;;;;;;;;-0.64;93.06;99044.36;435381;1256;112172;-41
2023/01/26 07:07:37;;;;;;;;;;;;;;;-0.59;92.75;99046.44;435094;1257;107546;-39
2023/01/26 07:17:42;;;;;;;;;;;;;;;-0.49;92.78;99050.36;435167;1256;97980;-39
2023/01/26 07:27:48;;;;;;;;;;;;;;;-0.32;93.01;99051.48;435187;1263;111989;-39
2023/01/26 07:37:54;;;;;;;;;;;;;;;-0.40;92.70;99048.08;435273;1257;108406;-39
2023/01/26 07:47:59;;;;;;;;;;;;;;;-0.47;92.53;99035.05;435099;1255;99346;-41
2023/01/26 07:58:05;;;;;;;;;;;;;;;-0.44;92.47;99029.38;435277;1257;111339;-41
2023/01/26 08:08:11;;;;;;;;;;;;;;;-0.43;92.48;99026.66;435114;1256;109156;-40
2023/01/26 08:18:16;;;;;;;;;;;;;;;-0.40;92.49;99028.50;435260;1256;99246;-40
2023/01/26 08:28:22;;;;;;;;;;;;;;;-0.29;92.60;99029.52;435408;1256;108827;-41
2023/01/26 08:38:29;;;;;;;;;;;;;;;-0.16;92.44;99020.46;435302;1257;99215;-41
2023/01/26 08:48:34;;;;;;;;;;;;;;;-0.03;92.28;99017.88;435148;1257;110817;-41
2023/01/26 08:58:40;;;;;;;;;;;;;;;0.08;92.20;99010.21;435263;1255;106324;-39
2023/01/26 09:08:45;;;;;;;;;;;;;;;0.16;92.19;99007.82;435131;1256;99247;-41
2023/01/26 09:18:52;;;;;;;;;;;;;;;0.21;92.22;99004.21;435201;1257;111234;-40
2023/01/26 09:28:58;;;;;;;;;;;;;;;0.26;92.11;99004.54;435286;1256;107783;-40
2023/01/26 09:39:02;;;;;;;;;;;;;;;0.28;91.88;99006.27;435265;1255;98364;-40
2023/01/26 09:49:10;;;;;;;;;;;;;;;0.32;91.85;99002.89;435301;1256;111065;-40
2023/01/26 09:59:16;;;;;;;;;;;;;;;0.41;91.80;99002.73;435353;1257;107006;-40
2023/01/26 10:09:20;;;;;;;;;;;;;;;0.49;91.58;98997.16;435280;1253;98583;-40
2023/01/26 10:19:27;;;;;;;;;;;;;;;0.69;91.65;98987.21;437061;1254;108212;-40
2023/01/26 10:29:36;;;;;;;;;;;;;;;0.66;91.54;98981.41;439081;1257;97999;-39
2023/01/26 10:39:45;;;;;;;;;;;;;;;0.60;91.44;98968.88;439142;1257;98813;-40
2023/01/26 10:49:50;;;;;;;;;;;;;;;0.61;91.40;98960.06;436255;1251;111779;-40
2023/01/26 10:59:54;;;;;;;;;;;;;;;0.52;91.35;98950.97;435258;1256;108533;-40
2023/01/26 11:10:16;;;;;;;;;;;;;;;0.50;91.30;98947.73;435290;1257;98322;-39
2023/01/26 11:20:39;;;;;;;;;;;;;;;0.58;91.27;98929.13;435251;1251;111493;-41
2023/01/26 11:30:46;;;;;;;;;;;;;;;0.72;91.31;98919.20;435187;1255;108485;-40
2023/01/26 11:40:51;;;;;;;;;;;;;;;0.92;91.61;98918.34;435360;1258;99326;-39
2023/01/26 11:50:59;;;;;;;;;;;;;;;0.93;91.41;98910.91;435242;1258;99249;-40
2023/01/26 12:01:04;;;;;;;;;;;;;;;0.88;91.09;98897.00;435322;1255;108583;-40
2023/01/26 12:11:25;;;;;;;;;;;;;;;0.87;90.99;98880.76;435210;1257;99320;-39
2023/01/26 12:21:30;;;;;;;;;;;;;;;0.77;90.79;98869.38;435346;1257;110131;-39
2023/01/26 12:31:34;;;;;;;;;;;;;;;0.75;90.85;98864.98;435276;1256;109510;-40
2023/01/26 12:41:48;;;;;;;;;;;;;;;0.75;91.03;98857.80;435258;1257;99226;-40
2023/01/26 12:51:56;;;;;;;;;;;;;;;0.73;90.85;98856.00;435265;1255;110769;-39
2023/01/26 13:02:01;;;;;;;;;;;;;;;0.72;90.71;98841.79;435319;1255;107218;-41
2023/01/26 13:12:27;;;;;;;;;;;;;;;0.81;90.80;98845.01;435123;1255;99201;-41
2023/01/26 13:22:38;;;;;;;;;;;;;;;0.90;90.84;98844.73;435216;1256;108658;-41
2023/01/26 13:32:56;;;;;;;;;;;;;;;0.76;90.66;98846.55;435320;1256;98811;-40
2023/01/26 13:43:01;;;;;;;;;;;;;;;0.54;90.62;98846.66;435364;1256;111628;-39
2023/01/26 13:53:37;;;;;;;;;;;;;;;0.38;90.46;98838.14;435292;1256;108619;-40
2023/01/26 14:03:44;;;;;;;;;;;;;;;0.38;90.52;98833.95;434988;1256;98034;-40
2023/01/26 14:13:49;;;;;;;;;;;;;;;0.47;90.68;98821.52;435244;1257;107288;-40
2023/01/26 14:23:54;;;;;;;;;;;;;;;0.35;90.51;98815.57;435219;1255;99232;-40
2023/01/26 14:33:59;;;;;;;;;;;;;;;0.16;90.51;98819.21;435289;1256;111665;-41
2023/01/26 14:54:09;;;;;;;;;;;;;;;0.14;90.43;98824.49;435060;1253;403068;-40
2023/01/26 15:04:15;;;;;;;;;;;;;;;0.18;90.55;98822.00;435259;1253;111912;-41
2023/01/26 15:14:30;;;;;;;;;;;;;;;0.14;90.64;98812.02;435215;1256;108523;-40
2023/01/26 15:24:36;;;;;;;;;;;;;;;-0.01;90.27;98810.96;435300;1251;99224;-41
2023/01/26 15:34:42;;;;;;;;;;;;;;;-0.12;89.96;98808.61;436299;1255;107698;-41
2023/01/26 15:44:48;;;;;;;;;;;;;;;-0.06;90.37;98806.81;436527;1251;98097;-40
2023/01/26 15:54:53;;;;;;;;;;;;;;;0.00;90.46;98808.23;435940;1255;111830;-41
2023/01/26 16:04:59;;;;;;;;;;;;;;;-0.10;90.54;98801.80;435210;1256;110172;-40
2023/01/26 16:15:05;;;;;;;;;;;;;;;-0.21;90.53;98806.27;435270;1255;99154;-40
2023/01/26 16:25:13;;;;;;;;;;;;;;;-0.31;90.35;98808.70;435367;1253;110872;-40
2023/01/26 16:35:20;;;;;;;;;;;;;;;-0.29;90.47;98813.15;436087;1256;108607;-40
2023/01/26 16:45:26;;;;;;;;;;;;;;;-0.23;90.56;98810.50;435451;1252;98826;-41
2023/01/26 16:55:32;;;;;;;;;;;;;;;-0.30;90.55;98814.59;435102;1256;107462;-40
2023/01/26 17:05:38;;;;;;;;;;;;;;;-0.37;90.41;98817.58;435127;1251;97979;-40
2023/01/26 17:25:56;;;;;;;;;;;;;;;-0.47;90.59;98830.98;435203;1251;108451;-38
2023/01/26 17:36:02;;;;;;;;;;;;;;;-0.48;90.57;98827.33;435237;1256;99303;-40
2023/01/26 17:46:08;;;;;;;;;;;;;;;-0.45;90.44;98820.51;435210;1256;112831;-40
2023/01/26 17:56:15;;;;;;;;;;;;;;;-0.41;90.38;98816.65;435202;1256;109317;-40
2023/01/26 18:06:20;;;;;;;;;;;;;;;-0.41;90.52;98813.70;435270;1256;116888;-39
2023/01/26 18:16:26;;;;;;;;;;;;;;;-0.48;90.47;98811.75;435279;1256;109340;-40
2023/01/26 18:26:33;;;;;;;;;;;;;;;-0.55;90.46;98819.59;435294;1256;99250;-40
2023/01/26 18:36:38;;;;;;;;;;;;;;;-0.58;90.62;98831.69;435267;1256;113308;-40
2023/01/26 18:46:44;;;;;;;;;;;;;;;-0.52;90.49;98835.94;435189;1255;109274;-40
2023/01/26 18:56:49;;;;;;;;;;;;;;;-0.43;90.56;98832.77;435262;1256;98809;-39
2023/01/26 19:06:54;;;;;;;;;;;;;;;-0.34;90.72;98826.76;435222;1255;108159;-39
2023/01/26 19:17:00;;;;;;;;;;;;;;;-0.37;90.66;98829.38;435297;1256;99225;-38
2023/01/26 19:27:06;;;;;;;;;;;;;;;-0.53;90.51;98828.17;435209;1256;111897;-38
2023/01/26 19:37:11;;;;;;;;;;;;;;;-0.57;90.68;98829.19;438082;1256;108720;-39
2023/01/26 19:47:17;;;;;;;;;;;;;;;-0.59;90.47;98831.80;435962;1256;97998;-41
2023/01/26 20:07:28;;;;;;;;;;;;;;;-0.52;90.48;98828.64;439061;1256;98702;-40
2023/01/26 20:17:34;;;;;;;;;;;;;;;-0.55;90.70;98834.33;439132;1255;111795;-39
2023/01/26 20:27:39;;;;;;;;;;;;;;;-0.61;90.74;98833.14;439087;1255;108451;-39
2023/01/26 20:37:45;;;;;;;;;;;;;;;-0.70;90.57;98822.80;438907;1256;97982;-40
2023/01/26 20:57:57;;;;;;;;;;;;;;;-0.65;90.52;98804.52;438552;1256;108548;-40
2023/01/26 21:08:03;;;;;;;;;;;;;;;-0.62;90.69;98796.90;439202;1255;99127;-39
2023/01/26 21:18:08;;;;;;;;;;;;;;;-0.63;90.72;98789.21;438682;1256;112295;-40
2023/01/26 21:28:14;;;;;;;;;;;;;;;-0.71;90.70;98781.91;438815;1256;108266;-40
2023/01/26 21:38:19;;;;;;;;;;;;;;;-0.83;90.90;98783.25;439054;1256;107427;-39
2023/01/26 21:48:30;;;;;;;;;;;;;;;-0.91;90.81;98785.18;438503;1253;98938;-41
2023/01/26 22:09:00;;;;;;;;;;;;;;;-0.80;90.99;98784.01;438273;1253;107515;-40
2023/01/26 22:19:05;;;;;;;;;;;;;;;-0.73;90.83;98782.27;435253;1256;98271;-41
2023/01/26 22:29:10;;;;;;;;;;;;;;;-0.80;90.89;98782.41;435273;1256;107435;-40
2023/01/26 22:39:16;;;;;;;;;;;;;;;-0.95;90.97;98789.30;435331;1251;99247;-40
2023/01/26 22:49:21;;;;;;;;;;;;;;;-1.03;91.30;98783.92;435398;1256;97987;-41
2023/01/26 22:59:27;;;;;;;;;;;;;;;-1.07;90.97;98781.54;435316;1256;110903;-40
2023/01/26 23:09:33;;;;;;;;;;;;;;;-1.04;90.98;98772.77;435127;1256;107740;-39
2023/01/26 23:19:38;;;;;;;;;;;;;;;-1.07;90.94;98770.41;438526;1252;99131;-39
2023/01/26 23:29:44;;;;;;;;;;;;;;;-1.03;91.11;98767.80;439275;1256;108079;-40
2023/01/26 23:39:50;;;;;;;;;;;;;;;-1.03;91.07;98763.62;439054;1256;99205;-39
2023/01/26 23:49:55;;;;;;;;;;;;;;;-1.13;91.25;98757.11;438797;1256;97997;-39
